Time;durP1;ratioP1;P1;durP2;ratioP2;P2;SDS_P1;SDS_P2;PMS_P1;PMS_P2;Temp;Humidity;BMP_temperature;BMP_pressure;BME280_temperature;BME280_humidity;BME280_pressure;Samples;Min_cycle;Max_cycle;Signal;HPM_P1;HPM_P2
2023/09/09 00:02:06;;;;;;;12.07;10.87;;;;;;;;;;5045366;28;20977;-81
2023/09/09 00:04:32;;;;;;;12.50;10.07;;;;;;;;;;5045767;28;20472;-81
2023/09/09 00:07:02;;;;;;;13.50;10.67;;;;;;;;;;5038472;28;20478;-82
2023/09/09 00:09:29;;;;;;;12.23;10.80;;;;;;;;;;5042947;28;21009;-82
2023/09/09 00:11:55;;;;;;;10.80;9.70;;;;;;;;;;5056948;28;20957;-82
2023/09/09 00:14:24;;;;;;;12.57;11.37;;;;;;;;;;5052692;28;20479;-82
2023/09/09 00:16:50;;;;;;;11.50;10.40;;;;;;;;;;5032281;28;20532;-82
2023/09/09 00:19:21;;;;;;;13.07;10.90;;;;;;;;;;5016131;28;20461;-82
2023/09/09 00:21:47;;;;;;;13.40;10.57;;;;;;;;;;5013267;28;20472;-82
2023/09/09 00:24:14;;;;;;;13.33;11.50;;;;;;;;;;5031225;28;20439;-82
2023/09/09 00:26:42;;;;;;;11.93;10.93;;;;;;;;;;5047588;28;20470;-82
2023/09/09 00:29:08;;;;;;;12.93;10.67;;;;;;;;;;5052330;28;20482;-81
2023/09/09 00:31:36;;;;;;;16.90;9.80;;;;;;;;;;5057370;28;20843;-81
2023/09/09 00:34:02;;;;;;;11.50;10.10;;;;;;;;;;5040406;28;20468;-82
2023/09/09 00:36:29;;;;;;;11.03;9.93;;;;;;;;;;5036544;28;20485;-81
2023/09/09 00:38:56;;;;;;;11.40;10.40;;;;;;;;;;5029267;28;20536;-81
2023/09/09 00:41:23;;;;;;;13.30;10.27;;;;;;;;;;5037187;28;20594;-82
2023/09/09 00:43:50;;;;;;;14.20;12.73;;;;;;;;;;5037624;28;20445;-81
2023/09/09 00:46:20;;;;;;;13.40;12.10;;;;;;;;;;5048355;28;20468;-82
2023/09/09 00:48:47;;;;;;;12.20;11.00;;;;;;;;;;5042756;28;20573;-81
2023/09/09 00:51:14;;;;;;;12.53;11.43;;;;;;;;;;5036885;28;20477;-82
2023/09/09 00:53:41;;;;;;;12.13;10.97;;;;;;;;;;5037240;28;20478;-81
2023/09/09 00:56:07;;;;;;;11.10;10.10;;;;;;;;;;5057100;28;20431;-81
2023/09/09 00:58:35;;;;;;;12.23;11.00;;;;;;;;;;5041677;28;20484;-82
2023/09/09 01:01:02;;;;;;;12.63;10.40;;;;;;;;;;5036898;28;20472;-81
2023/09/09 01:03:30;;;;;;;12.53;10.30;;;;;;;;;;5018986;28;20837;-81
2023/09/09 01:05:59;;;;;;;12.20;11.00;;;;;;;;;;5037057;28;20474;-81
2023/09/09 01:08:26;;;;;;;11.23;10.07;;;;;;;;;;5030581;28;20488;-81
2023/09/09 01:10:52;;;;;;;12.87;10.00;;;;;;;;;;5037430;28;20969;-82
2023/09/09 01:13:21;;;;;;;11.50;10.50;;;;;;;;;;5062743;28;20466;-81
2023/09/09 01:15:47;;;;;;;12.30;10.73;;;;;;;;;;5047360;28;20874;-81
2023/09/09 01:18:14;;;;;;;13.70;11.13;;;;;;;;;;5040363;28;20470;-82
2023/09/09 01:20:44;;;;;;;12.43;10.97;;;;;;;;;;5046444;28;20442;-81
2023/09/09 01:23:12;;;;;;;11.70;10.60;;;;;;;;;;5029138;28;20465;-81
2023/09/09 01:25:38;;;;;;;13.40;10.77;;;;;;;;;;5046314;28;20488;-81
2023/09/09 01:28:05;;;;;;;12.37;10.97;;;;;;;;;;5041954;28;20467;-81
2023/09/09 01:30:32;;;;;;;11.50;10.37;;;;;;;;;;5028787;28;20467;-82
2023/09/09 01:32:58;;;;;;;12.93;10.70;;;;;;;;;;5047873;28;20524;-81
2023/09/09 01:35:25;;;;;;;11.77;10.37;;;;;;;;;;5039755;28;20447;-81
2023/09/09 01:37:52;;;;;;;11.30;10.20;;;;;;;;;;5036284;28;20454;-81
2023/09/09 01:40:20;;;;;;;12.30;10.47;;;;;;;;;;5036207;28;20483;-81
2023/09/09 01:42:47;;;;;;;11.53;10.33;;;;;;;;;;5028462;28;20475;-82
2023/09/09 01:45:13;;;;;;;12.40;11.20;;;;;;;;;;5042953;28;20493;-81
2023/09/09 01:47:40;;;;;;;11.40;9.97;;;;;;;;;;5058245;28;20479;-81
2023/09/09 01:50:07;;;;;;;11.30;10.20;;;;;;;;;;5029868;28;20477;-82
2023/09/09 01:52:34;;;;;;;11.60;10.40;;;;;;;;;;5024392;28;20848;-81
2023/09/09 01:55:01;;;;;;;11.47;10.37;;;;;;;;;;5039260;28;20470;-81
2023/09/09 01:57:29;;;;;;;12.60;11.37;;;;;;;;;;5044019;28;20475;-81
2023/09/09 01:59:56;;;;;;;12.47;11.27;;;;;;;;;;5052592;28;20521;-81
2023/09/09 02:02:22;;;;;;;11.60;10.43;;;;;;;;;;5046602;28;20504;-81
2023/09/09 02:04:49;;;;;;;11.53;10.47;;;;;;;;;;5038073;28;20446;-82
2023/09/09 02:07:15;;;;;;;12.50;11.20;;;;;;;;;;5043740;28;20463;-81
2023/09/09 02:09:42;;;;;;;13.87;11.23;;;;;;;;;;5047472;28;20452;-82
2023/09/09 02:12:09;;;;;;;12.57;10.33;;;;;;;;;;5046229;28;20472;-82
2023/09/09 02:14:36;;;;;;;12.20;10.90;;;;;;;;;;5048836;28;20450;-81
2023/09/09 02:17:03;;;;;;;11.53;10.40;;;;;;;;;;5042125;28;20472;-82
2023/09/09 02:19:30;;;;;;;11.70;10.67;;;;;;;;;;5019687;28;20472;-81
2023/09/09 02:21:56;;;;;;;12.80;11.50;;;;;;;;;;5060193;28;20800;-81
2023/09/09 02:24:23;;;;;;;11.67;10.53;;;;;;;;;;5027010;28;20468;-82
2023/09/09 02:26:50;;;;;;;12.33;11.03;;;;;;;;;;5041735;28;20449;-82
2023/09/09 02:29:16;;;;;;;16.97;13.17;;;;;;;;;;5053764;28;20475;-82
2023/09/09 02:31:44;;;;;;;13.60;12.20;;;;;;;;;;5036876;28;20563;-81
2023/09/09 02:34:10;;;;;;;16.27;12.67;;;;;;;;;;5049513;28;20442;-82
2023/09/09 02:36:37;;;;;;;13.83;10.73;;;;;;;;;;5057040;28;20452;-81
2023/09/09 02:39:04;;;;;;;12.37;11.17;;;;;;;;;;5036011;28;20454;-81
2023/09/09 02:41:30;;;;;;;11.37;10.27;;;;;;;;;;5046796;28;20486;-81
2023/09/09 02:43:57;;;;;;;12.10;10.80;;;;;;;;;;5048140;28;20477;-81
2023/09/09 02:46:23;;;;;;;12.60;11.43;;;;;;;;;;5036146;28;20452;-81
2023/09/09 02:48:53;;;;;;;11.47;10.47;;;;;;;;;;5052807;28;20446;-82
2023/09/09 02:51:19;;;;;;;12.33;11.20;;;;;;;;;;5047190;28;20446;-81
2023/09/09 02:53:45;;;;;;;11.57;10.47;;;;;;;;;;5045164;28;20431;-82
2023/09/09 02:56:12;;;;;;;15.27;11.90;;;;;;;;;;5037211;28;20651;-81
2023/09/09 02:58:39;;;;;;;11.93;10.83;;;;;;;;;;5045371;28;20510;-81
2023/09/09 03:01:05;;;;;;;13.80;11.70;;;;;;;;;;5047980;28;20471;-82
2023/09/09 03:03:32;;;;;;;12.90;11.60;;;;;;;;;;5038778;28;20472;-81
2023/09/09 03:06:01;;;;;;;12.80;11.60;;;;;;;;;;5043429;28;20830;-81
2023/09/09 03:08:28;;;;;;;13.63;12.30;;;;;;;;;;5038593;28;20433;-82
2023/09/09 03:10:54;;;;;;;16.60;13.30;;;;;;;;;;5046887;28;20475;-82
2023/09/09 03:13:21;;;;;;;12.93;11.73;;;;;;;;;;5045183;28;20483;-82
2023/09/09 03:15:47;;;;;;;13.67;12.23;;;;;;;;;;5053954;28;20472;-81
2023/09/09 03:18:16;;;;;;;14.50;12.10;;;;;;;;;;5048762;28;20450;-82
2023/09/09 03:20:42;;;;;;;13.80;12.43;;;;;;;;;;5053516;28;20971;-82
2023/09/09 03:23:10;;;;;;;13.50;12.10;;;;;;;;;;5050804;28;20468;-82
2023/09/09 03:25:36;;;;;;;13.60;12.30;;;;;;;;;;5043018;28;20834;-81
2023/09/09 03:28:03;;;;;;;12.70;11.50;;;;;;;;;;5053007;28;20473;-82
2023/09/09 03:30:30;;;;;;;13.07;11.53;;;;;;;;;;5037936;28;20461;-81
2023/09/09 03:32:59;;;;;;;13.23;11.80;;;;;;;;;;5046452;28;20797;-81
2023/09/09 03:35:25;;;;;;;15.30;11.67;;;;;;;;;;5035604;28;20466;-82
2023/09/09 03:37:51;;;;;;;14.37;12.60;;;;;;;;;;5055099;28;20472;-81
2023/09/09 03:40:20;;;;;;;14.90;12.63;;;;;;;;;;5054220;28;20447;-81
2023/09/09 03:42:47;;;;;;;13.63;12.23;;;;;;;;;;5046385;28;20470;-81
2023/09/09 03:45:15;;;;;;;14.43;11.43;;;;;;;;;;5046189;28;20468;-81
2023/09/09 03:47:41;;;;;;;13.27;11.90;;;;;;;;;;5050365;28;20476;-81
2023/09/09 03:50:08;;;;;;;17.33;12.03;;;;;;;;;;5043570;28;20469;-81
2023/09/09 03:52:35;;;;;;;13.43;12.20;;;;;;;;;;5061519;28;20478;-81
2023/09/09 03:55:01;;;;;;;12.63;11.43;;;;;;;;;;5050919;28;20526;-81
2023/09/09 03:57:29;;;;;;;11.80;10.70;;;;;;;;;;5038657;28;20511;-81
2023/09/09 03:59:57;;;;;;;13.80;12.40;;;;;;;;;;5051784;28;20838;-81
2023/09/09 04:02:23;;;;;;;14.30;12.63;;;;;;;;;;5060946;28;20939;-81
2023/09/09 04:04:49;;;;;;;13.37;12.00;;;;;;;;;;5050225;28;20450;-82
2023/09/09 04:07:19;;;;;;;14.20;11.60;;;;;;;;;;5045740;28;20449;-81
2023/09/09 04:09:46;;;;;;;14.10;12.50;;;;;;;;;;5047808;28;20859;-82
2023/09/09 04:12:12;;;;;;;12.20;11.10;;;;;;;;;;5041050;28;20481;-81
2023/09/09 04:14:40;;;;;;;12.37;11.10;;;;;;;;;;5054066;28;20472;-81
2023/09/09 04:17:07;;;;;;;14.23;12.93;;;;;;;;;;5036098;28;20488;-82
2023/09/09 04:19:34;;;;;;;13.10;11.80;;;;;;;;;;5042318;28;20498;-81
2023/09/09 04:22:00;;;;;;;14.73;12.80;;;;;;;;;;5038135;28;20520;-81
2023/09/09 04:24:28;;;;;;;13.37;12.07;;;;;;;;;;5041749;28;20452;-81
2023/09/09 04:26:55;;;;;;;13.70;12.30;;;;;;;;;;5045528;28;20470;-82
2023/09/09 04:29:22;;;;;;;12.80;11.67;;;;;;;;;;5047860;28;20476;-82
2023/09/09 04:31:50;;;;;;;12.57;10.83;;;;;;;;;;5045445;28;20959;-81
2023/09/09 04:34:16;;;;;;;14.40;13.00;;;;;;;;;;5037347;28;21145;-81
2023/09/09 04:36:45;;;;;;;13.60;12.30;;;;;;;;;;5047238;28;20985;-82
2023/09/09 04:39:13;;;;;;;15.43;11.60;;;;;;;;;;5018941;28;20480;-81
2023/09/09 04:41:40;;;;;;;13.20;11.90;;;;;;;;;;5051099;28;20438;-81
2023/09/09 04:44:06;;;;;;;13.23;11.90;;;;;;;;;;5038137;28;20840;-81
2023/09/09 04:46:32;;;;;;;14.17;12.77;;;;;;;;;;5052404;28;20892;-81
2023/09/09 04:49:00;;;;;;;15.13;13.57;;;;;;;;;;5045164;28;20483;-81
2023/09/09 04:51:26;;;;;;;17.13;12.77;;;;;;;;;;5039842;28;20950;-81
2023/09/09 04:53:53;;;;;;;13.40;12.17;;;;;;;;;;5034009;28;20450;-81
2023/09/09 04:56:20;;;;;;;13.23;11.93;;;;;;;;;;5050972;28;20480;-82
2023/09/09 04:58:47;;;;;;;15.13;13.30;;;;;;;;;;5051768;28;20456;-81
2023/09/09 05:01:14;;;;;;;14.60;13.13;;;;;;;;;;5047622;28;20454;-82
2023/09/09 05:03:40;;;;;;;16.43;13.10;;;;;;;;;;5045109;28;20440;-82
2023/09/09 05:06:10;;;;;;;17.23;12.70;;;;;;;;;;5013183;28;20887;-82
2023/09/09 05:08:37;;;;;;;16.30;13.30;;;;;;;;;;5043148;28;20474;-82
2023/09/09 05:11:03;;;;;;;18.63;15.33;;;;;;;;;;5049322;28;20480;-82
2023/09/09 05:13:32;;;;;;;15.63;14.10;;;;;;;;;;5051144;28;20438;-82
2023/09/09 05:15:59;;;;;;;15.57;13.17;;;;;;;;;;5049248;28;20441;-82
2023/09/09 05:18:25;;;;;;;16.53;14.80;;;;;;;;;;5044068;28;20987;-81
2023/09/09 05:20:52;;;;;;;14.70;13.27;;;;;;;;;;5040794;28;20492;-82
2023/09/09 05:23:20;;;;;;;15.20;13.70;;;;;;;;;;5044534;28;20466;-82
2023/09/09 05:25:47;;;;;;;14.47;12.97;;;;;;;;;;5033654;28;21265;-81
2023/09/09 05:28:13;;;;;;;15.63;14.00;;;;;;;;;;5042837;28;20440;-82
2023/09/09 05:30:41;;;;;;;14.40;13.00;;;;;;;;;;5025945;28;20482;-81
2023/09/09 05:33:07;;;;;;;15.37;13.73;;;;;;;;;;5045615;28;20431;-82
2023/09/09 05:35:33;;;;;;;14.53;13.23;;;;;;;;;;5052748;28;20445;-81
2023/09/09 05:38:00;;;;;;;15.23;13.27;;;;;;;;;;5044318;28;20475;-82
2023/09/09 05:40:27;;;;;;;14.47;13.10;;;;;;;;;;5049540;28;20468;-81
2023/09/09 05:42:54;;;;;;;15.00;13.40;;;;;;;;;;5041933;28;20450;-81
2023/09/09 05:45:20;;;;;;;13.73;12.47;;;;;;;;;;5042823;28;20468;-81
2023/09/09 05:47:46;;;;;;;16.07;14.37;;;;;;;;;;5037593;28;20443;-82
2023/09/09 05:50:13;;;;;;;15.37;13.87;;;;;;;;;;5041088;28;20456;-81
2023/09/09 05:52:40;;;;;;;15.30;13.70;;;;;;;;;;5042699;28;20469;-81
2023/09/09 05:55:08;;;;;;;14.63;13.20;;;;;;;;;;5038432;28;20506;-82
2023/09/09 05:57:39;;;;;;;14.70;13.20;;;;;;;;;;5041712;28;20489;-82
2023/09/09 06:00:09;;;;;;;15.03;13.63;;;;;;;;;;5048262;28;20452;-82
2023/09/09 06:02:35;;;;;;;16.33;13.30;;;;;;;;;;5038815;28;20486;-82
2023/09/09 06:05:02;;;;;;;15.93;14.03;;;;;;;;;;5028339;28;20978;-81
2023/09/09 06:07:28;;;;;;;16.50;14.70;;;;;;;;;;5026530;28;20555;-81
2023/09/09 06:09:54;;;;;;;15.20;13.67;;;;;;;;;;5042698;28;20447;-81
2023/09/09 06:12:21;;;;;;;18.33;15.20;;;;;;;;;;5042865;28;20452;-81
2023/09/09 06:14:49;;;;;;;15.03;13.47;;;;;;;;;;5034717;28;20455;-82
2023/09/09 06:17:15;;;;;;;16.70;15.10;;;;;;;;;;5037724;28;20477;-81
2023/09/09 06:19:43;;;;;;;17.37;14.93;;;;;;;;;;5038684;28;20983;-81
2023/09/09 06:22:10;;;;;;;17.87;16.07;;;;;;;;;;5029194;28;20466;-81
2023/09/09 06:24:36;;;;;;;18.70;16.80;;;;;;;;;;5042842;28;20446;-81
2023/09/09 06:27:02;;;;;;;19.50;17.33;;;;;;;;;;5046457;28;20973;-81
2023/09/09 06:29:29;;;;;;;18.47;16.67;;;;;;;;;;5052142;28;20483;-81
2023/09/09 06:31:57;;;;;;;18.47;16.60;;;;;;;;;;5029741;28;20819;-81
2023/09/09 06:34:23;;;;;;;25.80;19.50;;;;;;;;;;5047195;28;20462;-81
2023/09/09 06:36:50;;;;;;;24.27;18.10;;;;;;;;;;5052856;28;20471;-81
2023/09/09 06:39:17;;;;;;;21.60;17.63;;;;;;;;;;5047903;28;20526;-82
2023/09/09 06:41:43;;;;;;;19.53;17.53;;;;;;;;;;5046474;28;20981;-81
2023/09/09 06:44:10;;;;;;;20.40;16.93;;;;;;;;;;5037115;28;20468;-81
2023/09/09 06:46:36;;;;;;;20.87;18.77;;;;;;;;;;5038464;28;20474;-82
2023/09/09 06:49:04;;;;;;;20.30;18.30;;;;;;;;;;5044118;28;20472;-81
2023/09/09 06:51:30;;;;;;;19.17;17.13;;;;;;;;;;5041860;28;20910;-81
2023/09/09 06:53:57;;;;;;;19.47;17.57;;;;;;;;;;5049291;28;20530;-81
2023/09/09 06:56:23;;;;;;;25.63;20.00;;;;;;;;;;5055608;28;20475;-81
2023/09/09 06:58:51;;;;;;;21.67;19.37;;;;;;;;;;5050699;28;20472;-81
2023/09/09 07:01:18;;;;;;;27.60;19.87;;;;;;;;;;5049670;28;20972;-81
2023/09/09 07:03:45;;;;;;;21.23;19.03;;;;;;;;;;5054522;28;20485;-81
2023/09/09 07:06:13;;;;;;;20.50;18.30;;;;;;;;;;5050526;28;21122;-81
2023/09/09 07:08:41;;;;;;;18.20;16.30;;;;;;;;;;5018997;28;20528;-81
2023/09/09 07:11:07;;;;;;;19.00;17.13;;;;;;;;;;5043936;28;20474;-81
2023/09/09 07:13:34;;;;;;;19.87;17.83;;;;;;;;;;5056888;28;20490;-81
2023/09/09 07:16:01;;;;;;;23.93;17.10;;;;;;;;;;5036118;28;20459;-81
2023/09/09 07:18:27;;;;;;;22.07;17.60;;;;;;;;;;5052371;28;20481;-81
2023/09/09 07:20:56;;;;;;;18.83;16.70;;;;;;;;;;5040780;28;20465;-81
2023/09/09 07:23:24;;;;;;;20.77;17.33;;;;;;;;;;5040364;28;20460;-82
2023/09/09 07:25:51;;;;;;;22.13;18.27;;;;;;;;;;5054188;28;20467;-81
2023/09/09 07:28:17;;;;;;;18.63;16.83;;;;;;;;;;5039166;28;20981;-81
2023/09/09 07:30:44;;;;;;;19.73;17.50;;;;;;;;;;5048518;28;20481;-81
2023/09/09 07:33:10;;;;;;;19.07;17.07;;;;;;;;;;5049743;28;20973;-81
2023/09/09 07:35:37;;;;;;;23.40;17.23;;;;;;;;;;5010244;28;20474;-81
2023/09/09 07:38:04;;;;;;;18.77;16.87;;;;;;;;;;5054895;28;20495;-81
2023/09/09 07:40:32;;;;;;;17.73;15.97;;;;;;;;;;5062832;28;20579;-81
2023/09/09 07:42:59;;;;;;;21.43;17.10;;;;;;;;;;5030504;28;21079;-81
2023/09/09 07:45:26;;;;;;;17.10;15.37;;;;;;;;;;5048007;28;20477;-81
2023/09/09 07:47:52;;;;;;;15.97;14.43;;;;;;;;;;5046077;28;20480;-81
2023/09/09 07:50:19;;;;;;;17.03;15.20;;;;;;;;;;5042066;28;20462;-81
2023/09/09 07:52:46;;;;;;;17.93;15.73;;;;;;;;;;5035383;28;20467;-81
2023/09/09 07:55:13;;;;;;;16.27;14.40;;;;;;;;;;5040993;28;20501;-82
2023/09/09 07:57:40;;;;;;;18.43;16.47;;;;;;;;;;5042653;28;20471;-81
2023/09/09 08:00:08;;;;;;;18.10;16.10;;;;;;;;;;5043074;28;20475;-81
2023/09/09 08:02:35;;;;;;;17.70;16.00;;;;;;;;;;5040160;28;20470;-81
2023/09/09 08:05:01;;;;;;;20.80;16.47;;;;;;;;;;5046977;28;20465;-81
2023/09/09 08:07:28;;;;;;;16.43;14.70;;;;;;;;;;5045423;28;20851;-81
2023/09/09 08:09:54;;;;;;;17.17;14.80;;;;;;;;;;5060443;28;20468;-81
2023/09/09 08:12:21;;;;;;;18.20;16.30;;;;;;;;;;5050035;28;20496;-81
2023/09/09 08:14:48;;;;;;;17.27;15.47;;;;;;;;;;5043556;28;20470;-81
2023/09/09 08:17:15;;;;;;;17.87;16.23;;;;;;;;;;5035765;28;20483;-81
2023/09/09 08:19:41;;;;;;;21.83;16.27;;;;;;;;;;5027923;28;20533;-81
2023/09/09 08:22:08;;;;;;;18.50;16.13;;;;;;;;;;5046772;28;20468;-81
2023/09/09 08:24:34;;;;;;;17.10;15.27;;;;;;;;;;5037552;28;20464;-81
2023/09/09 08:27:02;;;;;;;18.13;16.40;;;;;;;;;;5048184;28;20460;-81
2023/09/09 08:29:27;;;;;;;16.63;15.03;;;;;;;;;;5050494;28;21017;-81
2023/09/09 08:31:55;;;;;;;14.10;12.80;;;;;;;;;;5051121;28;20506;-81
2023/09/09 08:34:21;;;;;;;18.03;13.90;;;;;;;;;;5050731;28;21357;-81
2023/09/09 08:36:48;;;;;;;18.10;14.80;;;;;;;;;;5045112;28;20463;-81
2023/09/09 08:39:14;;;;;;;16.57;14.10;;;;;;;;;;5045349;28;20473;-82
2023/09/09 08:41:46;;;;;;;18.50;15.10;;;;;;;;;;5045171;28;20480;-82
2023/09/09 08:44:15;;;;;;;20.53;16.17;;;;;;;;;;5029694;28;20959;-81
2023/09/09 08:46:42;;;;;;;14.73;13.33;;;;;;;;;;5039958;28;20474;-81
2023/09/09 08:49:13;;;;;;;19.03;16.03;;;;;;;;;;5060580;28;20471;-81
2023/09/09 08:51:47;;;;;;;16.57;14.90;;;;;;;;;;5040534;28;20513;-82
2023/09/09 08:54:14;;;;;;;16.30;14.70;;;;;;;;;;5042913;28;20560;-81
2023/09/09 08:56:42;;;;;;;18.23;15.20;;;;;;;;;;5047603;28;20468;-81
2023/09/09 08:59:09;;;;;;;17.33;15.50;;;;;;;;;;5049277;28;20460;-81
2023/09/09 09:01:37;;;;;;;16.23;14.63;;;;;;;;;;5038498;28;20899;-81
2023/09/09 09:04:04;;;;;;;17.70;15.03;;;;;;;;;;5047490;28;20471;-81
2023/09/09 09:06:32;;;;;;;16.17;14.37;;;;;;;;;;5027983;28;20464;-81
2023/09/09 09:08:58;;;;;;;16.43;14.83;;;;;;;;;;5039069;28;20478;-81
2023/09/09 09:11:25;;;;;;;16.23;13.53;;;;;;;;;;5027340;28;20491;-82
2023/09/09 09:13:52;;;;;;;14.87;13.27;;;;;;;;;;5028549;28;20492;-81
2023/09/09 09:16:18;;;;;;;14.20;12.70;;;;;;;;;;5040410;28;20973;-81
2023/09/09 09:18:45;;;;;;;16.03;14.43;;;;;;;;;;5030088;28;20477;-81
2023/09/09 09:21:12;;;;;;;18.83;14.70;;;;;;;;;;5047826;28;20863;-81
2023/09/09 09:23:46;;;;;;;17.50;15.23;;;;;;;;;;5047057;28;20859;-81
2023/09/09 09:26:25;;;;;;;17.07;13.93;;;;;;;;;;5045383;28;20468;-81
2023/09/09 09:28:52;;;;;;;17.20;15.20;;;;;;;;;;5036416;28;20483;-81
2023/09/09 09:31:22;;;;;;;17.23;13.50;;;;;;;;;;5040244;28;20493;-82
2023/09/09 09:33:49;;;;;;;13.70;11.17;;;;;;;;;;5047393;28;20472;-81
2023/09/09 09:36:17;;;;;;;14.17;12.10;;;;;;;;;;5034774;28;20493;-82
2023/09/09 09:38:43;;;;;;;15.63;13.77;;;;;;;;;;5045888;28;20996;-81
2023/09/09 09:41:11;;;;;;;15.27;13.50;;;;;;;;;;5030637;28;20486;-81
2023/09/09 09:43:37;;;;;;;14.83;13.40;;;;;;;;;;5030800;28;20462;-81
2023/09/09 09:46:13;;;;;;;14.80;13.37;;;;;;;;;;5046387;28;20464;-81
2023/09/09 09:48:39;;;;;;;15.70;14.27;;;;;;;;;;5032326;28;20484;-81
2023/09/09 09:51:06;;;;;;;13.53;12.33;;;;;;;;;;5039368;28;20472;-82
2023/09/09 09:53:35;;;;;;;16.47;15.00;;;;;;;;;;5012888;28;20531;-81
2023/09/09 09:56:02;;;;;;;15.07;13.67;;;;;;;;;;5027998;28;20998;-81
2023/09/09 09:58:34;;;;;;;16.97;15.07;;;;;;;;;;5050761;28;21023;-81
2023/09/09 10:01:02;;;;;;;15.77;14.37;;;;;;;;;;5040889;28;20475;-81
2023/09/09 10:03:30;;;;;;;15.80;14.20;;;;;;;;;;5051605;28;21086;-81
2023/09/09 10:05:57;;;;;;;15.40;13.87;;;;;;;;;;5043969;28;20463;-81
2023/09/09 10:08:27;;;;;;;16.13;14.53;;;;;;;;;;5039523;28;20473;-81
2023/09/09 10:10:56;;;;;;;15.03;13.57;;;;;;;;;;5041161;28;20818;-81
2023/09/09 10:13:27;;;;;;;14.83;13.30;;;;;;;;;;5049317;28;20490;-81
2023/09/09 10:15:56;;;;;;;12.50;11.33;;;;;;;;;;5036437;28;20466;-81
2023/09/09 10:18:23;;;;;;;14.87;13.13;;;;;;;;;;5042982;28;20485;-81
2023/09/09 10:20:51;;;;;;;14.37;12.90;;;;;;;;;;5033254;28;20482;-81
2023/09/09 10:23:18;;;;;;;13.27;11.07;;;;;;;;;;5031113;28;20473;-81
2023/09/09 10:25:47;;;;;;;15.03;13.60;;;;;;;;;;5028603;28;20483;-82
2023/09/09 10:28:13;;;;;;;14.67;12.13;;;;;;;;;;5023346;28;20496;-81
2023/09/09 10:30:40;;;;;;;14.67;12.77;;;;;;;;;;5057331;28;20462;-81
2023/09/09 10:33:08;;;;;;;13.63;11.87;;;;;;;;;;5048796;28;20493;-82
2023/09/09 10:35:35;;;;;;;17.17;13.40;;;;;;;;;;5053938;28;20463;-81
2023/09/09 10:38:03;;;;;;;14.40;12.60;;;;;;;;;;5046117;28;20475;-82
2023/09/09 10:40:30;;;;;;;15.83;14.00;;;;;;;;;;5024537;28;20481;-81
2023/09/09 10:42:56;;;;;;;14.20;12.90;;;;;;;;;;5041344;28;20470;-82
2023/09/09 10:45:25;;;;;;;17.23;12.97;;;;;;;;;;5042335;28;20457;-81
2023/09/09 10:47:51;;;;;;;15.60;13.33;;;;;;;;;;5038467;28;20480;-81
2023/09/09 10:50:20;;;;;;;14.77;13.10;;;;;;;;;;5049898;28;20926;-81
2023/09/09 10:52:46;;;;;;;13.13;11.97;;;;;;;;;;5061530;28;20498;-82
2023/09/09 10:55:14;;;;;;;13.67;12.53;;;;;;;;;;5053192;28;20468;-81
2023/09/09 10:57:41;;;;;;;13.87;12.53;;;;;;;;;;5053594;28;20467;-82
2023/09/09 11:00:10;;;;;;;13.50;12.27;;;;;;;;;;5046140;28;20568;-82
2023/09/09 11:02:45;;;;;;;13.97;12.60;;;;;;;;;;5042072;28;20509;-82
2023/09/09 11:05:14;;;;;;;13.10;12.07;;;;;;;;;;5047177;28;20840;-82
2023/09/09 11:07:42;;;;;;;13.93;12.63;;;;;;;;;;5050201;28;20470;-82
2023/09/09 11:10:09;;;;;;;11.87;10.70;;;;;;;;;;5045876;28;20481;-82
2023/09/09 11:12:37;;;;;;;12.60;9.97;;;;;;;;;;5040287;28;20496;-82
2023/09/09 11:15:08;;;;;;;11.37;10.27;;;;;;;;;;5034938;28;20468;-82
2023/09/09 11:17:35;;;;;;;11.33;9.97;;;;;;;;;;5047122;28;20481;-82
2023/09/09 11:20:02;;;;;;;15.07;12.03;;;;;;;;;;5049017;28;20518;-82
2023/09/09 11:22:28;;;;;;;11.80;10.80;;;;;;;;;;5033302;28;20488;-82
2023/09/09 11:24:57;;;;;;;11.50;10.60;;;;;;;;;;5044035;28;20472;-82
2023/09/09 11:27:24;;;;;;;12.53;11.43;;;;;;;;;;5033916;28;20491;-82
2023/09/09 11:29:51;;;;;;;13.60;12.20;;;;;;;;;;5045765;28;20475;-81
2023/09/09 11:32:23;;;;;;;13.27;12.07;;;;;;;;;;5034133;28;20552;-82
2023/09/09 11:34:52;;;;;;;12.27;11.07;;;;;;;;;;5044002;28;20468;-81
2023/09/09 11:37:18;;;;;;;15.60;11.10;;;;;;;;;;5037028;28;20534;-82
2023/09/09 11:39:45;;;;;;;12.33;10.90;;;;;;;;;;5056710;28;20485;-81
2023/09/09 11:42:12;;;;;;;11.30;10.20;;;;;;;;;;5038075;28;20549;-82
2023/09/09 11:44:40;;;;;;;13.00;11.77;;;;;;;;;;5046713;28;20496;-81
2023/09/09 11:47:06;;;;;;;11.83;10.67;;;;;;;;;;5043643;28;20469;-81
2023/09/09 11:49:33;;;;;;;12.33;10.50;;;;;;;;;;5035492;28;20932;-82
2023/09/09 11:51:59;;;;;;;14.30;12.87;;;;;;;;;;5046099;28;20493;-81
2023/09/09 11:54:25;;;;;;;12.03;10.33;;;;;;;;;;5028418;28;20467;-81
2023/09/09 11:56:52;;;;;;;11.57;10.47;;;;;;;;;;5040316;28;20462;-82
2023/09/09 11:59:21;;;;;;;11.70;10.70;;;;;;;;;;5042429;28;20456;-82
2023/09/09 12:01:47;;;;;;;11.50;10.33;;;;;;;;;;5042050;28;20498;-81
2023/09/09 12:04:14;;;;;;;13.57;9.73;;;;;;;;;;5044528;28;20841;-82
2023/09/09 12:06:42;;;;;;;12.10;11.00;;;;;;;;;;5044965;28;20482;-81
2023/09/09 12:09:11;;;;;;;14.10;9.73;;;;;;;;;;5046802;28;20463;-81
2023/09/09 12:11:39;;;;;;;11.00;9.93;;;;;;;;;;5037539;28;20491;-81
2023/09/09 12:14:08;;;;;;;10.87;9.63;;;;;;;;;;5037007;28;20467;-81
2023/09/09 12:16:36;;;;;;;11.67;10.40;;;;;;;;;;5009553;28;20495;-82
2023/09/09 12:19:02;;;;;;;13.07;11.77;;;;;;;;;;5035569;28;20484;-82
2023/09/09 12:21:29;;;;;;;12.80;11.70;;;;;;;;;;5021625;28;20535;-81
2023/09/09 12:23:59;;;;;;;12.93;11.73;;;;;;;;;;5033148;28;20461;-81
2023/09/09 12:26:26;;;;;;;12.00;10.90;;;;;;;;;;5035048;28;21012;-81
2023/09/09 12:29:05;;;;;;;13.50;12.03;;;;;;;;;;5042674;28;20486;-81
2023/09/09 12:31:32;;;;;;;11.10;10.07;;;;;;;;;;5044349;28;20474;-82
2023/09/09 12:34:00;;;;;;;11.67;10.77;;;;;;;;;;5039339;28;20507;-81
2023/09/09 12:36:26;;;;;;;12.80;11.60;;;;;;;;;;5041928;28;20487;-81
2023/09/09 12:38:52;;;;;;;13.47;12.13;;;;;;;;;;5046904;28;20491;-82
2023/09/09 12:41:19;;;;;;;13.70;12.33;;;;;;;;;;5049402;28;21123;-82
2023/09/09 12:43:46;;;;;;;13.53;12.20;;;;;;;;;;5038801;28;20491;-82
2023/09/09 12:46:13;;;;;;;12.73;11.43;;;;;;;;;;5029053;28;20457;-82
2023/09/09 12:48:53;;;;;;;14.10;12.03;;;;;;;;;;5040850;28;20507;-81
2023/09/09 12:51:23;;;;;;;12.20;11.00;;;;;;;;;;5022422;28;20480;-81
2023/09/09 12:53:49;;;;;;;12.93;11.73;;;;;;;;;;5042742;28;20488;-82
2023/09/09 12:56:16;;;;;;;12.40;11.20;;;;;;;;;;5041315;28;20472;-82
2023/09/09 12:58:42;;;;;;;14.60;11.90;;;;;;;;;;5055290;28;21018;-81
2023/09/09 13:01:09;;;;;;;13.80;12.50;;;;;;;;;;5037800;28;20471;-81
2023/09/09 13:03:35;;;;;;;13.27;11.97;;;;;;;;;;5026601;28;20512;-82
2023/09/09 13:06:02;;;;;;;12.23;11.13;;;;;;;;;;5040020;28;20837;-81
2023/09/09 13:08:30;;;;;;;12.50;11.20;;;;;;;;;;5049739;28;20538;-81
2023/09/09 13:10:56;;;;;;;11.63;10.37;;;;;;;;;;5037124;28;20465;-81
2023/09/09 13:13:22;;;;;;;11.43;10.53;;;;;;;;;;5037306;28;21025;-82
2023/09/09 13:15:50;;;;;;;12.20;11.20;;;;;;;;;;5046357;28;20490;-81
2023/09/09 13:18:17;;;;;;;11.37;10.30;;;;;;;;;;5031202;28;20573;-82
2023/09/09 13:20:43;;;;;;;14.00;10.73;;;;;;;;;;5045278;28;20521;-81
2023/09/09 13:23:12;;;;;;;11.40;10.30;;;;;;;;;;5044761;28;21055;-81
2023/09/09 13:25:39;;;;;;;11.87;10.67;;;;;;;;;;5040935;28;20488;-81
2023/09/09 13:28:06;;;;;;;14.17;10.77;;;;;;;;;;5039077;28;20498;-81
2023/09/09 13:30:32;;;;;;;11.80;10.60;;;;;;;;;;5035455;28;20465;-81
2023/09/09 13:32:59;;;;;;;10.77;9.77;;;;;;;;;;5033637;28;20506;-81
2023/09/09 13:35:25;;;;;;;10.43;9.53;;;;;;;;;;5021276;28;20464;-81
2023/09/09 13:37:51;;;;;;;11.30;10.20;;;;;;;;;;5036288;28;20492;-81
2023/09/09 13:40:18;;;;;;;10.90;9.90;;;;;;;;;;5036431;28;20463;-81
2023/09/09 13:42:45;;;;;;;10.37;9.37;;;;;;;;;;5052222;28;20487;-80
2023/09/09 13:45:12;;;;;;;11.70;10.13;;;;;;;;;;5052663;28;20477;-81
2023/09/09 13:47:39;;;;;;;11.53;9.60;;;;;;;;;;5052097;28;20470;-81
2023/09/09 13:50:06;;;;;;;11.23;10.03;;;;;;;;;;5046792;28;20541;-81
2023/09/09 13:52:33;;;;;;;10.90;9.80;;;;;;;;;;5041521;28;20499;-81
2023/09/09 13:55:02;;;;;;;10.03;9.00;;;;;;;;;;5047561;28;20466;-81
2023/09/09 13:57:29;;;;;;;11.13;10.23;;;;;;;;;;5048466;28;20555;-81
2023/09/09 13:59:57;;;;;;;10.70;9.80;;;;;;;;;;5050246;28;20455;-82
2023/09/09 14:02:25;;;;;;;12.17;10.37;;;;;;;;;;5037673;28;20464;-81
2023/09/09 14:04:51;;;;;;;10.70;9.80;;;;;;;;;;5037436;28;20467;-81
2023/09/09 14:07:18;;;;;;;15.40;9.53;;;;;;;;;;5043594;28;20507;-82
2023/09/09 14:09:44;;;;;;;12.33;11.10;;;;;;;;;;5016823;28;20471;-81
2023/09/09 14:12:11;;;;;;;9.90;9.10;;;;;;;;;;5040065;28;20531;-81
2023/09/09 14:14:37;;;;;;;10.30;8.87;;;;;;;;;;5053331;28;20465;-81
2023/09/09 14:17:05;;;;;;;13.33;10.13;;;;;;;;;;5056145;28;20956;-81
2023/09/09 14:19:31;;;;;;;10.70;9.60;;;;;;;;;;5042357;28;20465;-82